sensor_id;sensor_type;location;lat;lon;timestamp;P1;durP1;ratioP1;P2;durP2;ratioP2
21591;SDS011;10958;50.892;3.992;2023-07-29T00:00:00;2.20;;;1.23;;
21591;SDS011;10958;50.892;3.992;2023-07-29T00:02:26;2.50;;;1.20;;
21591;SDS011;10958;50.892;3.992;2023-07-29T00:04:54;2.78;;;1.50;;
21591;SDS011;10958;50.892;3.992;2023-07-29T00:07:20;2.50;;;1.75;;
21591;SDS011;10958;50.892;3.992;2023-07-29T00:09:46;3.38;;;1.65;;
21591;SDS011;10958;50.892;3.992;2023-07-29T00:12:11;2.38;;;1.52;;
21591;SDS011;10958;50.892;3.992;2023-07-29T00:14:37;3.10;;;1.48;;
21591;SDS011;10958;50.892;3.992;2023-07-29T00:17:03;1.75;;;1.30;;
21591;SDS011;10958;50.892;3.992;2023-07-29T00:19:29;2.42;;;1.27;;
21591;SDS011;10958;50.892;3.992;2023-07-29T00:21:54;3.22;;;1.75;;
21591;SDS011;10958;50.892;3.992;2023-07-29T00:24:20;1.90;;;1.60;;
21591;SDS011;10958;50.892;3.992;2023-07-29T00:26:46;1.75;;;1.45;;
21591;SDS011;10958;50.892;3.992;2023-07-29T00:29:12;3.40;;;1.52;;
21591;SDS011;10958;50.892;3.992;2023-07-29T00:31:37;3.28;;;1.95;;
21591;SDS011;10958;50.892;3.992;2023-07-29T00:34:06;6.82;;;1.83;;
21591;SDS011;10958;50.892;3.992;2023-07-29T00:36:32;3.70;;;2.10;;
21591;SDS011;10958;50.892;3.992;2023-07-29T00:39:00;3.88;;;1.73;;
21591;SDS011;10958;50.892;3.992;2023-07-29T00:41:26;3.80;;;1.55;;
21591;SDS011;10958;50.892;3.992;2023-07-29T00:43:52;2.17;;;1.40;;
21591;SDS011;10958;50.892;3.992;2023-07-29T00:46:18;2.30;;;1.42;;
21591;SDS011;10958;50.892;3.992;2023-07-29T00:48:46;3.40;;;1.52;;
21591;SDS011;10958;50.892;3.992;2023-07-29T00:51:12;2.33;;;1.52;;
21591;SDS011;10958;50.892;3.992;2023-07-29T00:53:38;2.95;;;1.50;;
21591;SDS011;10958;50.892;3.992;2023-07-29T00:56:06;2.15;;;1.42;;
21591;SDS011;10958;50.892;3.992;2023-07-29T00:58:34;1.58;;;1.38;;
21591;SDS011;10958;50.892;3.992;2023-07-29T01:01:00;2.28;;;1.55;;
21591;SDS011;10958;50.892;3.992;2023-07-29T01:03:25;3.97;;;1.45;;
21591;SDS011;10958;50.892;3.992;2023-07-29T01:08:46;3.47;;;1.58;;
21591;SDS011;10958;50.892;3.992;2023-07-29T01:15:11;2.72;;;1.73;;
21591;SDS011;10958;50.892;3.992;2023-07-29T01:17:21;2.08;;;1.52;;
21591;SDS011;10958;50.892;3.992;2023-07-29T01:20:09;3.08;;;1.60;;
21591;SDS011;10958;50.892;3.992;2023-07-29T01:22:42;4.10;;;2.05;;
21591;SDS011;10958;50.892;3.992;2023-07-29T01:25:10;3.35;;;1.70;;
21591;SDS011;10958;50.892;3.992;2023-07-29T01:27:39;3.95;;;1.85;;
21591;SDS011;10958;50.892;3.992;2023-07-29T01:38:09;2.83;;;1.90;;
21591;SDS011;10958;50.892;3.992;2023-07-29T01:40:38;1.77;;;1.63;;
21591;SDS011;10958;50.892;3.992;2023-07-29T01:43:08;4.43;;;1.80;;
21591;SDS011;10958;50.892;3.992;2023-07-29T01:45:33;3.75;;;1.95;;
21591;SDS011;10958;50.892;3.992;2023-07-29T01:48:03;2.60;;;1.75;;
21591;SDS011;10958;50.892;3.992;2023-07-29T01:50:32;4.35;;;1.98;;
21591;SDS011;10958;50.892;3.992;2023-07-29T01:52:58;4.22;;;1.90;;
21591;SDS011;10958;50.892;3.992;2023-07-29T01:55:24;2.28;;;1.95;;
21591;SDS011;10958;50.892;3.992;2023-07-29T01:57:50;5.30;;;2.17;;
21591;SDS011;10958;50.892;3.992;2023-07-29T02:00:17;2.53;;;1.98;;
21591;SDS011;10958;50.892;3.992;2023-07-29T02:02:43;4.35;;;2.20;;
21591;SDS011;10958;50.892;3.992;2023-07-29T02:05:09;3.30;;;1.92;;
21591;SDS011;10958;50.892;3.992;2023-07-29T02:07:35;5.43;;;2.25;;
21591;SDS011;10958;50.892;3.992;2023-07-29T02:10:00;4.00;;;2.00;;
21591;SDS011;10958;50.892;3.992;2023-07-29T02:12:26;2.67;;;2.00;;
21591;SDS011;10958;50.892;3.992;2023-07-29T02:14:52;3.72;;;2.13;;
21591;SDS011;10958;50.892;3.992;2023-07-29T02:17:18;3.92;;;1.95;;
21591;SDS011;10958;50.892;3.992;2023-07-29T02:19:44;2.83;;;2.10;;
21591;SDS011;10958;50.892;3.992;2023-07-29T02:22:12;2.88;;;1.98;;
21591;SDS011;10958;50.892;3.992;2023-07-29T02:24:39;3.85;;;2.17;;
21591;SDS011;10958;50.892;3.992;2023-07-29T02:27:05;3.40;;;2.17;;
21591;SDS011;10958;50.892;3.992;2023-07-29T02:29:31;4.22;;;1.77;;
21591;SDS011;10958;50.892;3.992;2023-07-29T02:31:58;3.97;;;1.92;;
21591;SDS011;10958;50.892;3.992;2023-07-29T02:34:26;3.95;;;1.98;;
21591;SDS011;10958;50.892;3.992;2023-07-29T02:36:52;2.30;;;1.92;;
21591;SDS011;10958;50.892;3.992;2023-07-29T02:39:18;2.65;;;1.70;;
21591;SDS011;10958;50.892;3.992;2023-07-29T02:41:44;2.47;;;1.75;;
21591;SDS011;10958;50.892;3.992;2023-07-29T02:44:11;2.70;;;2.00;;
21591;SDS011;10958;50.892;3.992;2023-07-29T02:46:36;2.40;;;1.60;;
21591;SDS011;10958;50.892;3.992;2023-07-29T02:49:02;2.28;;;1.80;;
21591;SDS011;10958;50.892;3.992;2023-07-29T02:51:29;2.55;;;1.65;;
21591;SDS011;10958;50.892;3.992;2023-07-29T02:53:55;2.85;;;1.98;;
21591;SDS011;10958;50.892;3.992;2023-07-29T02:56:21;3.35;;;1.75;;
21591;SDS011;10958;50.892;3.992;2023-07-29T02:58:47;2.55;;;1.55;;
21591;SDS011;10958;50.892;3.992;2023-07-29T03:01:15;2.38;;;1.80;;
21591;SDS011;10958;50.892;3.992;2023-07-29T03:03:46;2.20;;;1.42;;
21591;SDS011;10958;50.892;3.992;2023-07-29T03:06:13;3.40;;;1.97;;
21591;SDS011;10958;50.892;3.992;2023-07-29T03:08:39;4.93;;;1.85;;
21591;SDS011;10958;50.892;3.992;2023-07-29T03:11:06;2.03;;;1.52;;
21591;SDS011;10958;50.892;3.992;2023-07-29T03:13:35;2.78;;;1.58;;
21591;SDS011;10958;50.892;3.992;2023-07-29T03:18:31;5.75;;;1.75;;
21591;SDS011;10958;50.892;3.992;2023-07-29T03:20:57;2.65;;;1.95;;
21591;SDS011;10958;50.892;3.992;2023-07-29T03:23:23;1.67;;;1.58;;
21591;SDS011;10958;50.892;3.992;2023-07-29T03:25:49;3.85;;;1.73;;
21591;SDS011;10958;50.892;3.992;2023-07-29T03:28:16;3.97;;;2.00;;
21591;SDS011;10958;50.892;3.992;2023-07-29T03:30:42;5.13;;;2.00;;
21591;SDS011;10958;50.892;3.992;2023-07-29T03:33:08;2.55;;;2.00;;
21591;SDS011;10958;50.892;3.992;2023-07-29T03:35:34;4.97;;;2.20;;
21591;SDS011;10958;50.892;3.992;2023-07-29T03:38:00;4.80;;;2.10;;
21591;SDS011;10958;50.892;3.992;2023-07-29T03:40:26;3.22;;;1.77;;
21591;SDS011;10958;50.892;3.992;2023-07-29T03:42:51;2.70;;;1.98;;
21591;SDS011;10958;50.892;3.992;2023-07-29T03:45:17;4.72;;;2.10;;
21591;SDS011;10958;50.892;3.992;2023-07-29T03:47:45;3.25;;;1.85;;
21591;SDS011;10958;50.892;3.992;2023-07-29T03:50:11;5.70;;;1.98;;
21591;SDS011;10958;50.892;3.992;2023-07-29T03:52:37;3.40;;;2.08;;
21591;SDS011;10958;50.892;3.992;2023-07-29T03:55:05;3.50;;;2.00;;
21591;SDS011;10958;50.892;3.992;2023-07-29T03:57:31;4.35;;;2.13;;
21591;SDS011;10958;50.892;3.992;2023-07-29T03:59:59;2.92;;;1.88;;
21591;SDS011;10958;50.892;3.992;2023-07-29T04:02:27;5.97;;;2.03;;
21591;SDS011;10958;50.892;3.992;2023-07-29T04:04:53;4.70;;;2.03;;
21591;SDS011;10958;50.892;3.992;2023-07-29T04:07:18;5.10;;;2.00;;
21591;SDS011;10958;50.892;3.992;2023-07-29T04:09:44;4.05;;;1.80;;
21591;SDS011;10958;50.892;3.992;2023-07-29T04:12:10;3.30;;;2.25;;
21591;SDS011;10958;50.892;3.992;2023-07-29T04:14:36;2.30;;;1.80;;
21591;SDS011;10958;50.892;3.992;2023-07-29T04:17:01;5.43;;;2.10;;
21591;SDS011;10958;50.892;3.992;2023-07-29T04:19:27;3.55;;;1.90;;
21591;SDS011;10958;50.892;3.992;2023-07-29T04:21:54;3.65;;;2.30;;
21591;SDS011;10958;50.892;3.992;2023-07-29T04:24:20;6.07;;;2.20;;
21591;SDS011;10958;50.892;3.992;2023-07-29T04:26:48;4.10;;;2.38;;
21591;SDS011;10958;50.892;3.992;2023-07-29T04:29:14;2.40;;;1.95;;
21591;SDS011;10958;50.892;3.992;2023-07-29T04:31:40;6.18;;;2.40;;
21591;SDS011;10958;50.892;3.992;2023-07-29T04:34:06;3.33;;;2.03;;
21591;SDS011;10958;50.892;3.992;2023-07-29T04:36:32;3.13;;;2.15;;
21591;SDS011;10958;50.892;3.992;2023-07-29T04:38:58;5.43;;;2.20;;
21591;SDS011;10958;50.892;3.992;2023-07-29T04:41:24;4.82;;;2.15;;
21591;SDS011;10958;50.892;3.992;2023-07-29T04:43:50;3.88;;;2.47;;
21591;SDS011;10958;50.892;3.992;2023-07-29T04:46:16;2.75;;;2.22;;
21591;SDS011;10958;50.892;3.992;2023-07-29T04:48:42;7.55;;;2.58;;
21591;SDS011;10958;50.892;3.992;2023-07-29T04:51:08;3.33;;;2.42;;
21591;SDS011;10958;50.892;3.992;2023-07-29T04:53:33;3.47;;;2.22;;
21591;SDS011;10958;50.892;3.992;2023-07-29T04:56:01;5.28;;;2.50;;
21591;SDS011;10958;50.892;3.992;2023-07-29T04:58:27;3.33;;;2.17;;
21591;SDS011;10958;50.892;3.992;2023-07-29T05:00:54;4.70;;;2.65;;
21591;SDS011;10958;50.892;3.992;2023-07-29T05:03:21;3.13;;;2.10;;
21591;SDS011;10958;50.892;3.992;2023-07-29T05:05:50;5.28;;;2.50;;
21591;SDS011;10958;50.892;3.992;2023-07-29T05:08:18;2.50;;;2.28;;
21591;SDS011;10958;50.892;3.992;2023-07-29T05:10:44;4.50;;;2.75;;
21591;SDS011;10958;50.892;3.992;2023-07-29T05:13:13;3.40;;;2.50;;
21591;SDS011;10958;50.892;3.992;2023-07-29T05:15:39;5.32;;;2.88;;
21591;SDS011;10958;50.892;3.992;2023-07-29T05:18:04;5.40;;;2.63;;
21591;SDS011;10958;50.892;3.992;2023-07-29T05:20:30;3.97;;;2.60;;
21591;SDS011;10958;50.892;3.992;2023-07-29T05:22:56;3.72;;;2.45;;
21591;SDS011;10958;50.892;3.992;2023-07-29T05:25:24;5.95;;;2.80;;
21591;SDS011;10958;50.892;3.992;2023-07-29T05:27:52;5.43;;;2.28;;
21591;SDS011;10958;50.892;3.992;2023-07-29T05:30:17;3.25;;;2.15;;
21591;SDS011;10958;50.892;3.992;2023-07-29T05:32:43;3.63;;;2.22;;
21591;SDS011;10958;50.892;3.992;2023-07-29T05:35:11;3.65;;;2.10;;
21591;SDS011;10958;50.892;3.992;2023-07-29T05:37:38;5.43;;;2.10;;
21591;SDS011;10958;50.892;3.992;2023-07-29T05:40:06;3.50;;;2.33;;
21591;SDS011;10958;50.892;3.992;2023-07-29T05:42:35;6.95;;;2.40;;
21591;SDS011;10958;50.892;3.992;2023-07-29T05:45:04;4.57;;;2.30;;
21591;SDS011;10958;50.892;3.992;2023-07-29T05:47:31;4.03;;;1.90;;
21591;SDS011;10958;50.892;3.992;2023-07-29T05:49:56;3.03;;;1.65;;
21591;SDS011;10958;50.892;3.992;2023-07-29T05:52:22;2.75;;;1.92;;
21591;SDS011;10958;50.892;3.992;2023-07-29T05:54:48;6.95;;;2.17;;
21591;SDS011;10958;50.892;3.992;2023-07-29T05:57:14;2.40;;;1.80;;
21591;SDS011;10958;50.892;3.992;2023-07-29T05:59:42;5.57;;;2.00;;
21591;SDS011;10958;50.892;3.992;2023-07-29T06:02:07;4.90;;;1.85;;
21591;SDS011;10958;50.892;3.992;2023-07-29T06:04:36;3.65;;;2.13;;
21591;SDS011;10958;50.892;3.992;2023-07-29T06:07:02;3.55;;;2.30;;
21591;SDS011;10958;50.892;3.992;2023-07-29T06:09:28;3.10;;;1.92;;
21591;SDS011;10958;50.892;3.992;2023-07-29T06:11:54;3.60;;;1.77;;
21591;SDS011;10958;50.892;3.992;2023-07-29T06:14:20;4.10;;;1.70;;
21591;SDS011;10958;50.892;3.992;2023-07-29T06:16:46;3.42;;;1.83;;
21591;SDS011;10958;50.892;3.992;2023-07-29T06:19:12;3.63;;;2.13;;
21591;SDS011;10958;50.892;3.992;2023-07-29T06:21:38;2.67;;;1.70;;
21591;SDS011;10958;50.892;3.992;2023-07-29T06:24:06;3.00;;;1.40;;
21591;SDS011;10958;50.892;3.992;2023-07-29T06:26:34;3.75;;;1.48;;
21591;SDS011;10958;50.892;3.992;2023-07-29T06:29:00;3.45;;;1.65;;
21591;SDS011;10958;50.892;3.992;2023-07-29T06:31:29;3.00;;;1.63;;
21591;SDS011;10958;50.892;3.992;2023-07-29T06:33:55;4.80;;;1.52;;
21591;SDS011;10958;50.892;3.992;2023-07-29T06:36:21;2.72;;;1.40;;
21591;SDS011;10958;50.892;3.992;2023-07-29T06:38:47;4.72;;;1.63;;
21591;SDS011;10958;50.892;3.992;2023-07-29T06:41:15;2.60;;;1.38;;
21591;SDS011;10958;50.892;3.992;2023-07-29T06:43:42;3.38;;;1.48;;
21591;SDS011;10958;50.892;3.992;2023-07-29T06:46:07;2.50;;;1.48;;
21591;SDS011;10958;50.892;3.992;2023-07-29T06:48:33;3.72;;;1.65;;
21591;SDS011;10958;50.892;3.992;2023-07-29T06:50:59;2.30;;;1.55;;
21591;SDS011;10958;50.892;3.992;2023-07-29T06:53:26;2.08;;;1.38;;
21591;SDS011;10958;50.892;3.992;2023-07-29T06:55:52;2.15;;;1.40;;
21591;SDS011;10958;50.892;3.992;2023-07-29T06:58:19;2.35;;;1.20;;
21591;SDS011;10958;50.892;3.992;2023-07-29T07:00:45;2.60;;;1.60;;
21591;SDS011;10958;50.892;3.992;2023-07-29T07:03:11;2.55;;;1.75;;
21591;SDS011;10958;50.892;3.992;2023-07-29T07:05:37;2.80;;;1.23;;
21591;SDS011;10958;50.892;3.992;2023-07-29T07:08:02;3.42;;;1.83;;
21591;SDS011;10958;50.892;3.992;2023-07-29T07:10:30;2.17;;;1.60;;
21591;SDS011;10958;50.892;3.992;2023-07-29T07:12:56;1.73;;;1.40;;
21591;SDS011;10958;50.892;3.992;2023-07-29T07:15:22;4.00;;;1.40;;
21591;SDS011;10958;50.892;3.992;2023-07-29T07:17:48;3.38;;;1.73;;
21591;SDS011;10958;50.892;3.992;2023-07-29T07:20:13;3.30;;;1.58;;
21591;SDS011;10958;50.892;3.992;2023-07-29T07:22:39;3.92;;;1.30;;
21591;SDS011;10958;50.892;3.992;2023-07-29T07:25:07;4.63;;;1.88;;
21591;SDS011;10958;50.892;3.992;2023-07-29T07:27:34;4.28;;;1.58;;
21591;SDS011;10958;50.892;3.992;2023-07-29T07:30:02;2.60;;;1.45;;
21591;SDS011;10958;50.892;3.992;2023-07-29T07:32:29;2.95;;;1.55;;
21591;SDS011;10958;50.892;3.992;2023-07-29T07:34:55;3.05;;;1.40;;
21591;SDS011;10958;50.892;3.992;2023-07-29T07:37:23;3.78;;;1.33;;
21591;SDS011;10958;50.892;3.992;2023-07-29T07:39:52;2.80;;;1.20;;
21591;SDS011;10958;50.892;3.992;2023-07-29T07:42:17;1.60;;;1.10;;
21591;SDS011;10958;50.892;3.992;2023-07-29T07:44:43;1.67;;;1.10;;
21591;SDS011;10958;50.892;3.992;2023-07-29T07:47:09;1.40;;;1.20;;
21591;SDS011;10958;50.892;3.992;2023-07-29T07:49:37;3.97;;;1.70;;
21591;SDS011;10958;50.892;3.992;2023-07-29T07:54:29;4.78;;;1.20;;
21591;SDS011;10958;50.892;3.992;2023-07-29T07:56:55;2.45;;;1.23;;
21591;SDS011;10958;50.892;3.992;2023-07-29T07:59:21;1.67;;;0.90;;
21591;SDS011;10958;50.892;3.992;2023-07-29T08:01:51;1.23;;;0.90;;
21591;SDS011;10958;50.892;3.992;2023-07-29T08:04:19;2.42;;;1.00;;
21591;SDS011;10958;50.892;3.992;2023-07-29T08:06:45;2.15;;;1.00;;
21591;SDS011;10958;50.892;3.992;2023-07-29T08:09:11;1.40;;;1.10;;
21591;SDS011;10958;50.892;3.992;2023-07-29T08:11:37;1.70;;;1.10;;
21591;SDS011;10958;50.892;3.992;2023-07-29T08:14:04;2.47;;;0.75;;
21591;SDS011;10958;50.892;3.992;2023-07-29T08:16:30;1.23;;;0.80;;
21591;SDS011;10958;50.892;3.992;2023-07-29T08:18:59;1.38;;;1.08;;
21591;SDS011;10958;50.892;3.992;2023-07-29T08:21:33;2.50;;;0.85;;
21591;SDS011;10958;50.892;3.992;2023-07-29T08:24:01;2.55;;;1.00;;
21591;SDS011;10958;50.892;3.992;2023-07-29T08:26:28;3.13;;;1.10;;
21591;SDS011;10958;50.892;3.992;2023-07-29T08:29:02;1.65;;;0.90;;
21591;SDS011;10958;50.892;3.992;2023-07-29T08:31:28;3.03;;;1.50;;
21591;SDS011;10958;50.892;3.992;2023-07-29T08:34:07;2.92;;;1.02;;
21591;SDS011;10958;50.892;3.992;2023-07-29T08:39:42;4.15;;;1.20;;
21591;SDS011;10958;50.892;3.992;2023-07-29T08:42:19;1.25;;;0.90;;
21591;SDS011;10958;50.892;3.992;2023-07-29T08:45:01;3.65;;;1.40;;
21591;SDS011;10958;50.892;3.992;2023-07-29T08:47:36;1.60;;;1.02;;
21591;SDS011;10958;50.892;3.992;2023-07-29T08:50:18;1.20;;;0.90;;
21591;SDS011;10958;50.892;3.992;2023-07-29T08:55:18;3.17;;;1.20;;
21591;SDS011;10958;50.892;3.992;2023-07-29T09:00:36;2.38;;;1.25;;
21591;SDS011;10958;50.892;3.992;2023-07-29T09:03:03;1.95;;;1.50;;
21591;SDS011;10958;50.892;3.992;2023-07-29T09:05:32;2.45;;;1.60;;
21591;SDS011;10958;50.892;3.992;2023-07-29T09:11:07;3.50;;;1.63;;
21591;SDS011;10958;50.892;3.992;2023-07-29T09:13:41;1.77;;;1.30;;
21591;SDS011;10958;50.892;3.992;2023-07-29T09:16:19;1.67;;;1.30;;
21591;SDS011;10958;50.892;3.992;2023-07-29T09:18:53;3.15;;;1.20;;
21591;SDS011;10958;50.892;3.992;2023-07-29T09:21:24;2.08;;;1.20;;
21591;SDS011;10958;50.892;3.992;2023-07-29T09:26:30;2.20;;;1.10;;
21591;SDS011;10958;50.892;3.992;2023-07-29T09:28:59;2.25;;;1.10;;
21591;SDS011;10958;50.892;3.992;2023-07-29T09:31:28;2.83;;;1.27;;
21591;SDS011;10958;50.892;3.992;2023-07-29T09:33:58;1.90;;;1.15;;
21591;SDS011;10958;50.892;3.992;2023-07-29T09:36:30;1.60;;;1.13;;
21591;SDS011;10958;50.892;3.992;2023-07-29T09:38:56;1.52;;;1.35;;
21591;SDS011;10958;50.892;3.992;2023-07-29T09:41:27;3.03;;;1.50;;
21591;SDS011;10958;50.892;3.992;2023-07-29T09:43:59;3.83;;;1.40;;
21591;SDS011;10958;50.892;3.992;2023-07-29T09:46:35;3.63;;;1.40;;
21591;SDS011;10958;50.892;3.992;2023-07-29T09:49:06;1.98;;;1.20;;
21591;SDS011;10958;50.892;3.992;2023-07-29T09:51:39;3.30;;;1.50;;
21591;SDS011;10958;50.892;3.992;2023-07-29T09:54:06;2.33;;;1.65;;
21591;SDS011;10958;50.892;3.992;2023-07-29T09:56:32;3.85;;;1.40;;
21591;SDS011;10958;50.892;3.992;2023-07-29T09:58:57;2.05;;;1.60;;
21591;SDS011;10958;50.892;3.992;2023-07-29T10:03:38;2.13;;;1.70;;
21591;SDS011;10958;50.892;3.992;2023-07-29T10:06:12;7.50;;;2.60;;
21591;SDS011;10958;50.892;3.992;2023-07-29T10:08:41;3.20;;;2.20;;
21591;SDS011;10958;50.892;3.992;2023-07-29T10:11:42;2.67;;;2.00;;
21591;SDS011;10958;50.892;3.992;2023-07-29T10:14:18;2.75;;;1.90;;
21591;SDS011;10958;50.892;3.992;2023-07-29T10:19:57;3.80;;;2.00;;
21591;SDS011;10958;50.892;3.992;2023-07-29T10:22:46;3.28;;;1.70;;
21591;SDS011;10958;50.892;3.992;2023-07-29T10:25:57;3.72;;;2.00;;
21591;SDS011;10958;50.892;3.992;2023-07-29T10:28:12;5.30;;;2.20;;
21591;SDS011;10958;50.892;3.992;2023-07-29T10:30:41;3.40;;;2.25;;
21591;SDS011;10958;50.892;3.992;2023-07-29T10:36:52;2.33;;;1.87;;
21591;SDS011;10958;50.892;3.992;2023-07-29T10:39:53;3.58;;;1.80;;
21591;SDS011;10958;50.892;3.992;2023-07-29T10:42:33;2.97;;;1.70;;
21591;SDS011;10958;50.892;3.992;2023-07-29T10:45:22;2.22;;;1.70;;
21591;SDS011;10958;50.892;3.992;2023-07-29T10:51:47;1.00;;;0.80;;
21591;SDS011;10958;50.892;3.992;2023-07-29T10:54:51;1.10;;;0.98;;
21591;SDS011;10958;50.892;3.992;2023-07-29T10:58:11;1.70;;;1.13;;
21591;SDS011;10958;50.892;3.992;2023-07-29T11:01:23;1.60;;;1.00;;
21591;SDS011;10958;50.892;3.992;2023-07-29T11:10:06;1.13;;;1.00;;
21591;SDS011;10958;50.892;3.992;2023-07-29T11:13:28;1.77;;;1.08;;
21591;SDS011;10958;50.892;3.992;2023-07-29T11:16:09;1.08;;;0.95;;
21591;SDS011;10958;50.892;3.992;2023-07-29T11:18:40;1.35;;;1.05;;
21591;SDS011;10958;50.892;3.992;2023-07-29T11:21:07;2.33;;;1.00;;
21591;SDS011;10958;50.892;3.992;2023-07-29T11:24:13;1.60;;;1.05;;
21591;SDS011;10958;50.892;3.992;2023-07-29T11:27:03;4.55;;;1.60;;
21591;SDS011;10958;50.892;3.992;2023-07-29T11:29:59;4.72;;;1.52;;
21591;SDS011;10958;50.892;3.992;2023-07-29T11:32:45;1.75;;;1.30;;
21591;SDS011;10958;50.892;3.992;2023-07-29T11:35:12;3.70;;;2.35;;
21591;SDS011;10958;50.892;3.992;2023-07-29T11:37:43;3.58;;;1.63;;
21591;SDS011;10958;50.892;3.992;2023-07-29T11:40:15;1.52;;;1.42;;
21591;SDS011;10958;50.892;3.992;2023-07-29T11:42:49;2.83;;;1.40;;
21591;SDS011;10958;50.892;3.992;2023-07-29T11:45:17;2.83;;;1.67;;
21591;SDS011;10958;50.892;3.992;2023-07-29T11:47:43;2.33;;;1.38;;
21591;SDS011;10958;50.892;3.992;2023-07-29T11:50:10;1.70;;;1.60;;
21591;SDS011;10958;50.892;3.992;2023-07-29T11:52:43;2.33;;;1.40;;
21591;SDS011;10958;50.892;3.992;2023-07-29T11:55:11;2.13;;;1.45;;
21591;SDS011;10958;50.892;3.992;2023-07-29T11:57:40;1.92;;;1.00;;
21591;SDS011;10958;50.892;3.992;2023-07-29T12:00:09;4.25;;;1.17;;
21591;SDS011;10958;50.892;3.992;2023-07-29T12:02:38;1.77;;;1.20;;
21591;SDS011;10958;50.892;3.992;2023-07-29T12:05:09;1.52;;;1.30;;
21591;SDS011;10958;50.892;3.992;2023-07-29T12:07:36;1.55;;;1.30;;
21591;SDS011;10958;50.892;3.992;2023-07-29T12:10:06;1.02;;;0.93;;
21591;SDS011;10958;50.892;3.992;2023-07-29T12:12:37;4.45;;;1.20;;
21591;SDS011;10958;50.892;3.992;2023-07-29T12:15:22;1.17;;;1.08;;
21591;SDS011;10958;50.892;3.992;2023-07-29T12:17:58;1.80;;;1.27;;
21591;SDS011;10958;50.892;3.992;2023-07-29T12:20:28;2.97;;;0.98;;
21591;SDS011;10958;50.892;3.992;2023-07-29T12:23:01;2.45;;;1.10;;
21591;SDS011;10958;50.892;3.992;2023-07-29T12:25:28;1.10;;;0.90;;
21591;SDS011;10958;50.892;3.992;2023-07-29T12:28:01;3.38;;;1.10;;
21591;SDS011;10958;50.892;3.992;2023-07-29T12:30:29;3.25;;;1.10;;
21591;SDS011;10958;50.892;3.992;2023-07-29T12:32:55;1.42;;;1.00;;
21591;SDS011;10958;50.892;3.992;2023-07-29T12:35:20;1.42;;;0.93;;
21591;SDS011;10958;50.892;3.992;2023-07-29T12:40:27;1.47;;;0.97;;
21591;SDS011;10958;50.892;3.992;2023-07-29T12:42:54;1.58;;;1.00;;
21591;SDS011;10958;50.892;3.992;2023-07-29T12:45:20;3.20;;;1.00;;
21591;SDS011;10958;50.892;3.992;2023-07-29T12:47:48;1.15;;;1.02;;
21591;SDS011;10958;50.892;3.992;2023-07-29T12:50:16;1.60;;;1.35;;
21591;SDS011;10958;50.892;3.992;2023-07-29T12:52:42;0.65;;;0.65;;
21591;SDS011;10958;50.892;3.992;2023-07-29T12:55:07;0.85;;;0.85;;
21591;SDS011;10958;50.892;3.992;2023-07-29T12:57:39;1.23;;;0.90;;
21591;SDS011;10958;50.892;3.992;2023-07-29T13:00:13;1.20;;;0.80;;
21591;SDS011;10958;50.892;3.992;2023-07-29T13:02:42;1.60;;;0.90;;
21591;SDS011;10958;50.892;3.992;2023-07-29T13:05:14;1.08;;;0.85;;
21591;SDS011;10958;50.892;3.992;2023-07-29T13:07:40;1.05;;;0.95;;
21591;SDS011;10958;50.892;3.992;2023-07-29T13:10:09;1.23;;;0.80;;
21591;SDS011;10958;50.892;3.992;2023-07-29T13:12:35;0.60;;;0.60;;
21591;SDS011;10958;50.892;3.992;2023-07-29T13:15:02;1.50;;;0.77;;
21591;SDS011;10958;50.892;3.992;2023-07-29T13:17:28;1.52;;;0.80;;
21591;SDS011;10958;50.892;3.992;2023-07-29T13:19:54;0.90;;;0.80;;
21591;SDS011;10958;50.892;3.992;2023-07-29T13:22:26;1.00;;;0.93;;
21591;SDS011;10958;50.892;3.992;2023-07-29T13:25:11;1.17;;;1.10;;
21591;SDS011;10958;50.892;3.992;2023-07-29T13:28:00;1.17;;;0.93;;
21591;SDS011;10958;50.892;3.992;2023-07-29T13:30:30;1.10;;;1.00;;
21591;SDS011;10958;50.892;3.992;2023-07-29T13:33:10;1.00;;;0.90;;
21591;SDS011;10958;50.892;3.992;2023-07-29T13:35:42;1.20;;;0.98;;
21591;SDS011;10958;50.892;3.992;2023-07-29T13:38:36;1.00;;;0.90;;
21591;SDS011;10958;50.892;3.992;2023-07-29T13:41:32;1.83;;;1.02;;
21591;SDS011;10958;50.892;3.992;2023-07-29T13:44:42;1.52;;;1.42;;
21591;SDS011;10958;50.892;3.992;2023-07-29T13:50:45;1.30;;;1.20;;
21591;SDS011;10958;50.892;3.992;2023-07-29T13:53:20;1.30;;;1.20;;
21591;SDS011;10958;50.892;3.992;2023-07-29T13:58:53;1.83;;;1.27;;
21591;SDS011;10958;50.892;3.992;2023-07-29T14:05:21;1.52;;;1.40;;
21591;SDS011;10958;50.892;3.992;2023-07-29T14:07:58;3.55;;;1.35;;
21591;SDS011;10958;50.892;3.992;2023-07-29T14:13:43;4.93;;;2.22;;
21591;SDS011;10958;50.892;3.992;2023-07-29T14:16:59;1.77;;;1.60;;
21591;SDS011;10958;50.892;3.992;2023-07-29T14:19:50;1.75;;;1.65;;
21591;SDS011;10958;50.892;3.992;2023-07-29T14:22:35;5.00;;;2.13;;
21591;SDS011;10958;50.892;3.992;2023-07-29T14:25:24;1.60;;;1.50;;
21591;SDS011;10958;50.892;3.992;2023-07-29T14:27:59;2.42;;;1.55;;
21591;SDS011;10958;50.892;3.992;2023-07-29T14:30:30;2.78;;;1.70;;
21591;SDS011;10958;50.892;3.992;2023-07-29T14:36:40;3.72;;;2.17;;
21591;SDS011;10958;50.892;3.992;2023-07-29T14:39:42;2.45;;;1.98;;
21591;SDS011;10958;50.892;3.992;2023-07-29T14:43:04;2.50;;;2.20;;
21591;SDS011;10958;50.892;3.992;2023-07-29T14:45:33;1.67;;;1.58;;
21591;SDS011;10958;50.892;3.992;2023-07-29T14:47:59;1.92;;;1.80;;
21591;SDS011;10958;50.892;3.992;2023-07-29T14:50:24;2.05;;;1.40;;
21591;SDS011;10958;50.892;3.992;2023-07-29T14:52:53;1.85;;;1.65;;
21591;SDS011;10958;50.892;3.992;2023-07-29T14:55:19;2.05;;;1.40;;
21591;SDS011;10958;50.892;3.992;2023-07-29T14:57:45;2.50;;;1.45;;
21591;SDS011;10958;50.892;3.992;2023-07-29T15:00:11;1.75;;;1.65;;
21591;SDS011;10958;50.892;3.992;2023-07-29T15:02:37;1.52;;;1.42;;
21591;SDS011;10958;50.892;3.992;2023-07-29T15:05:03;2.72;;;1.38;;
21591;SDS011;10958;50.892;3.992;2023-07-29T15:07:30;1.50;;;1.33;;
21591;SDS011;10958;50.892;3.992;2023-07-29T15:10:02;1.58;;;1.30;;
21591;SDS011;10958;50.892;3.992;2023-07-29T15:12:28;1.30;;;1.20;;
21591;SDS011;10958;50.892;3.992;2023-07-29T15:14:56;1.40;;;1.30;;
21591;SDS011;10958;50.892;3.992;2023-07-29T15:17:22;2.47;;;1.67;;
21591;SDS011;10958;50.892;3.992;2023-07-29T15:19:48;2.50;;;1.80;;
21591;SDS011;10958;50.892;3.992;2023-07-29T15:22:16;1.47;;;1.37;;
21591;SDS011;10958;50.892;3.992;2023-07-29T15:24:42;1.88;;;1.30;;
21591;SDS011;10958;50.892;3.992;2023-07-29T15:27:09;1.85;;;1.60;;
21591;SDS011;10958;50.892;3.992;2023-07-29T15:29:40;2.92;;;1.30;;
21591;SDS011;10958;50.892;3.992;2023-07-29T15:32:06;3.70;;;0.70;;
21591;SDS011;10958;50.892;3.992;2023-07-29T15:34:33;0.93;;;0.85;;
21591;SDS011;10958;50.892;3.992;2023-07-29T15:36:59;1.40;;;0.73;;
21591;SDS011;10958;50.892;3.992;2023-07-29T15:39:25;2.13;;;1.15;;
21591;SDS011;10958;50.892;3.992;2023-07-29T15:41:51;1.58;;;1.00;;
21591;SDS011;10958;50.892;3.992;2023-07-29T15:44:18;1.95;;;0.70;;
21591;SDS011;10958;50.892;3.992;2023-07-29T15:46:44;2.03;;;0.90;;
21591;SDS011;10958;50.892;3.992;2023-07-29T15:49:13;1.92;;;0.90;;
21591;SDS011;10958;50.892;3.992;2023-07-29T15:51:41;2.95;;;1.10;;
21591;SDS011;10958;50.892;3.992;2023-07-29T15:54:07;2.85;;;1.00;;
21591;SDS011;10958;50.892;3.992;2023-07-29T15:56:33;1.98;;;1.15;;
21591;SDS011;10958;50.892;3.992;2023-07-29T15:59:01;2.85;;;1.00;;
21591;SDS011;10958;50.892;3.992;2023-07-29T16:01:27;1.27;;;0.80;;
21591;SDS011;10958;50.892;3.992;2023-07-29T16:03:59;1.63;;;0.88;;
21591;SDS011;10958;50.892;3.992;2023-07-29T16:06:26;2.17;;;1.00;;
21591;SDS011;10958;50.892;3.992;2023-07-29T16:08:53;1.88;;;0.95;;
21591;SDS011;10958;50.892;3.992;2023-07-29T16:11:22;2.72;;;1.20;;
21591;SDS011;10958;50.892;3.992;2023-07-29T16:13:51;2.40;;;1.08;;
21591;SDS011;10958;50.892;3.992;2023-07-29T16:16:18;2.22;;;1.20;;